Time;durP1;ratioP1;P1;durP2;ratioP2;P2;SDS_P1;SDS_P2;PMS_P1;PMS_P2;Temp;Humidity;BMP_temperature;BMP_pressure;BME280_temperature;BME280_humidity;BME280_pressure;Samples;Min_cycle;Max_cycle;Signal;HPM_P1;HPM_P2
2023/08/31 04:02:55;;;;;;;1.17;1.07;;;14.50;99.90;;;;;;4857634;29;20538;-72
2023/08/31 04:05:25;;;;;;;0.60;0.10;;;14.60;99.90;;;;;;4859419;29;20517;-72
2023/08/31 04:07:53;;;;;;;0.93;0.87;;;14.40;99.90;;;;;;4860532;29;20974;-72
2023/08/31 04:10:21;;;;;;;0.60;0.30;;;14.30;99.90;;;;;;4860345;29;20531;-73
2023/08/31 04:12:49;;;;;;;0.83;0.50;;;14.40;99.90;;;;;;4860416;29;20489;-71
2023/08/31 04:15:17;;;;;;;0.60;0.23;;;;;;;;;;4907923;23;20503;-73
2023/08/31 04:17:45;;;;;;;0.60;0.20;;;14.60;99.90;;;;;;4914366;29;20919;-74
2023/08/31 04:20:15;;;;;;;1.73;1.47;;;14.60;99.90;;;;;;4913891;29;20558;-72
2023/08/31 04:22:43;;;;;;;6.53;1.27;;;14.50;99.90;;;;;;4914694;29;20455;-75
2023/08/31 04:25:14;;;;;;;0.67;0.23;;;14.40;99.90;;;;;;4906108;29;20498;-73
2023/08/31 04:27:42;;;;;;;0.60;0.20;;;14.40;99.90;;;;;;4896006;29;21003;-73
2023/08/31 04:30:11;;;;;;;1.93;1.03;;;14.40;99.90;;;;;;4895019;29;20459;-73
2023/08/31 04:32:39;;;;;;;0.60;0.10;;;14.30;99.90;;;;;;4891839;29;20472;-73
2023/08/31 04:35:11;;;;;;;1.10;0.83;;;14.20;99.90;;;;;;4894490;29;20472;-74
2023/08/31 04:37:40;;;;;;;1.00;0.70;;;14.40;99.90;;;;;;4881306;29;20453;-73
2023/08/31 04:40:12;;;;;;;1.60;1.30;;;14.40;99.90;;;;;;4894388;29;20551;-72
2023/08/31 04:42:40;;;;;;;0.60;0.10;;;14.50;99.90;;;;;;4877171;29;20486;-74
2023/08/31 04:45:14;;;;;;;0.60;0.20;;;14.50;99.90;;;;;;4892182;29;20496;-75
2023/08/31 04:47:42;;;;;;;0.60;0.10;;;14.50;99.90;;;;;;4876786;29;20460;-73
2023/08/31 04:50:11;;;;;;;0.83;0.40;;;;;;;;;;4880528;29;21016;-73
2023/08/31 04:52:40;;;;;;;2.00;1.13;;;14.60;99.90;;;;;;4894952;29;21168;-73
2023/08/31 04:55:09;;;;;;;0.77;0.40;;;14.50;99.90;;;;;;4895548;29;20481;-72
2023/08/31 04:57:44;;;;;;;0.70;0.40;;;14.40;99.90;;;;;;4892582;29;20917;-73
2023/08/31 05:00:12;;;;;;;1.17;0.63;;;14.40;99.90;;;;;;4895107;29;20455;-74
2023/08/31 05:02:41;;;;;;;0.60;0.20;;;14.30;99.90;;;;;;4895034;29;20494;-73
2023/08/31 05:05:09;;;;;;;1.13;0.77;;;14.40;99.90;;;;;;4895255;29;20485;-73
2023/08/31 05:07:38;;;;;;;1.00;0.60;;;14.30;99.90;;;;;;4891722;29;20463;-73
2023/08/31 05:10:09;;;;;;;0.60;0.10;;;14.20;99.90;;;;;;4895608;29;20503;-74
2023/08/31 05:12:37;;;;;;;0.60;0.20;;;14.20;99.90;;;;;;4896687;29;20462;-73
2023/08/31 05:15:09;;;;;;;1.47;1.37;;;14.30;99.90;;;;;;4895792;29;20575;-74
2023/08/31 05:17:39;;;;;;;1.20;1.10;;;14.30;99.90;;;;;;4894908;29;20466;-72
2023/08/31 05:20:09;;;;;;;1.73;0.83;;;14.20;99.90;;;;;;4894963;29;20453;-74
2023/08/31 05:22:37;;;;;;;2.00;1.23;;;14.10;99.90;;;;;;4876910;29;20457;-72
2023/08/31 05:25:08;;;;;;;0.60;0.20;;;14.30;99.90;;;;;;4879746;29;20481;-73
2023/08/31 05:27:35;;;;;;;0.60;0.10;;;14.30;99.90;;;;;;4896332;29;20485;-73
2023/08/31 05:30:04;;;;;;;1.40;0.83;;;14.30;99.90;;;;;;4899260;29;20928;-75
2023/08/31 05:32:33;;;;;;;0.60;0.10;;;14.30;99.90;;;;;;4898889;29;20555;-72
2023/08/31 05:35:00;;;;;;;0.60;0.10;;;14.20;99.90;;;;;;4898539;29;20472;-74
2023/08/31 05:37:33;;;;;;;0.60;0.10;;;14.20;99.90;;;;;;4897889;29;20548;-73
2023/08/31 05:40:09;;;;;;;1.40;0.90;;;14.30;99.90;;;;;;4898664;29;20873;-75
2023/08/31 05:42:39;;;;;;;0.60;0.20;;;14.20;99.90;;;;;;4898857;29;20509;-75
2023/08/31 05:45:10;;;;;;;0.83;0.50;;;14.20;99.90;;;;;;4880478;29;20476;-74
2023/08/31 05:47:41;;;;;;;1.67;0.70;;;14.10;99.90;;;;;;4902307;29;20851;-73
2023/08/31 05:50:10;;;;;;;0.93;0.73;;;14.20;99.90;;;;;;4902326;29;20452;-75
2023/08/31 05:52:38;;;;;;;1.60;0.87;;;14.10;99.90;;;;;;4898073;29;20452;-73
2023/08/31 05:55:09;;;;;;;0.97;0.97;;;14.10;99.90;;;;;;4898175;29;20504;-74
2023/08/31 05:57:37;;;;;;;1.80;1.60;;;14.00;99.90;;;;;;4898441;29;20448;-74
2023/08/31 06:00:08;;;;;;;0.80;0.77;;;;;;;;;;4897615;29;20604;-73
2023/08/31 06:05:53;;;;;;;3.40;1.17;;;;;;;;;;5030283;23;20508;-73
2023/08/31 06:08:21;;;;;;;3.47;0.73;;;;;;;;;;4899994;29;20482;-75
2023/08/31 06:10:50;;;;;;;1.13;1.00;;;14.20;99.90;;;;;;4905429;29;20451;-75
2023/08/31 06:13:17;;;;;;;0.60;0.10;;;14.30;99.90;;;;;;4904745;29;20453;-73
2023/08/31 06:15:47;;;;;;;0.70;0.33;;;14.40;99.90;;;;;;4902621;29;20844;-74
2023/08/31 06:18:15;;;;;;;2.30;1.27;;;14.30;99.90;;;;;;4898963;29;20527;-73
2023/08/31 06:20:43;;;;;;;0.93;0.70;;;14.20;99.90;;;;;;4891657;29;20468;-75
2023/08/31 06:23:12;;;;;;;1.17;1.07;;;14.30;99.90;;;;;;4879060;29;20506;-73
2023/08/31 06:25:40;;;;;;;0.60;0.10;;;14.40;99.90;;;;;;4879367;29;20546;-74
2023/08/31 06:28:11;;;;;;;1.63;1.23;;;14.40;99.90;;;;;;4879090;29;20467;-73
2023/08/31 06:30:40;;;;;;;2.10;1.60;;;14.40;99.90;;;;;;4879106;29;20461;-74
2023/08/31 06:33:10;;;;;;;0.90;0.47;;;14.20;99.90;;;;;;4879836;29;20740;-75
2023/08/31 06:35:38;;;;;;;0.60;0.30;;;14.20;99.90;;;;;;4878770;29;20481;-73
2023/08/31 06:38:06;;;;;;;0.60;0.10;;;14.20;99.90;;;;;;4892867;29;20468;-74
2023/08/31 06:40:34;;;;;;;0.70;0.40;;;14.30;99.90;;;;;;4878864;29;20457;-73
2023/08/31 06:43:03;;;;;;;0.70;0.30;;;14.30;99.90;;;;;;4877084;29;20469;-74
2023/08/31 06:45:31;;;;;;;0.60;0.10;;;14.40;99.90;;;;;;4870966;29;21168;-73
2023/08/31 06:47:59;;;;;;;2.30;1.30;;;14.50;99.90;;;;;;4879170;29;20483;-73
2023/08/31 06:50:29;;;;;;;1.27;0.67;;;14.40;99.90;;;;;;4878474;29;21014;-73
2023/08/31 06:52:57;;;;;;;0.70;0.63;;;14.40;99.90;;;;;;4878658;29;20454;-75
2023/08/31 06:55:25;;;;;;;2.40;2.20;;;14.50;99.90;;;;;;4878797;29;20480;-73
2023/08/31 06:57:53;;;;;;;0.60;0.20;;;14.50;99.90;;;;;;4879012;29;20442;-73
2023/08/31 07:00:23;;;;;;;0.60;0.10;;;14.60;99.90;;;;;;4878569;29;20507;-73
2023/08/31 07:02:52;;;;;;;1.10;1.00;;;14.70;99.90;;;;;;4879090;29;20549;-72
2023/08/31 07:05:25;;;;;;;0.60;0.20;;;14.60;99.90;;;;;;4878097;29;20478;-72
2023/08/31 07:07:55;;;;;;;0.60;0.40;;;14.70;99.90;;;;;;4895835;29;20489;-74
2023/08/31 07:10:23;;;;;;;0.70;0.60;;;14.80;99.90;;;;;;4892946;29;20534;-73
2023/08/31 07:12:51;;;;;;;0.97;0.83;;;14.70;99.90;;;;;;4885458;29;20452;-74
2023/08/31 07:15:19;;;;;;;1.33;0.70;;;14.70;99.90;;;;;;4884890;29;20478;-73
2023/08/31 07:17:47;;;;;;;0.60;0.10;;;14.80;99.90;;;;;;4882725;29;20469;-73
2023/08/31 07:20:16;;;;;;;1.00;0.50;;;14.90;99.90;;;;;;4879242;29;20460;-73
2023/08/31 07:22:44;;;;;;;0.60;0.10;;;14.90;99.90;;;;;;4878619;29;20454;-73
2023/08/31 07:25:13;;;;;;;0.70;0.30;;;15.00;99.90;;;;;;4878605;29;20480;-73
2023/08/31 07:27:41;;;;;;;0.60;0.10;;;15.00;99.90;;;;;;4878477;29;20573;-74
2023/08/31 07:30:12;;;;;;;0.60;0.10;;;15.00;99.90;;;;;;4879209;29;21039;-73
2023/08/31 07:32:40;;;;;;;0.60;0.20;;;15.00;99.90;;;;;;4875546;29;20448;-73
2023/08/31 07:35:09;;;;;;;0.60;0.20;;;15.00;99.90;;;;;;4878683;29;20470;-74
2023/08/31 07:37:37;;;;;;;0.60;0.30;;;14.90;99.90;;;;;;4878311;29;20510;-73
2023/08/31 07:40:17;;;;;;;0.70;0.20;;;15.00;99.90;;;;;;4870375;29;20949;-74
2023/08/31 07:42:48;;;;;;;2.03;1.30;;;15.00;99.90;;;;;;4878527;29;20774;-73
2023/08/31 07:45:16;;;;;;;0.70;0.40;;;15.00;99.90;;;;;;4862845;29;20482;-73
2023/08/31 07:47:44;;;;;;;1.03;0.50;;;15.10;99.90;;;;;;4872952;29;20996;-74
2023/08/31 07:50:14;;;;;;;0.97;0.60;;;15.10;99.90;;;;;;4871147;29;20465;-74
2023/08/31 07:52:42;;;;;;;0.90;0.57;;;15.10;99.90;;;;;;4881113;29;20479;-75
2023/08/31 07:55:10;;;;;;;1.93;1.30;;;15.10;99.90;;;;;;4880038;29;20477;-74
2023/08/31 07:57:39;;;;;;;0.77;0.57;;;15.20;99.90;;;;;;4880853;29;20447;-73
2023/08/31 08:00:14;;;;;;;0.70;0.37;;;17.00;99.90;;;;;;4876866;29;20454;-75
2023/08/31 08:02:42;;;;;;;0.87;0.57;;;15.20;99.90;;;;;;4881653;29;20457;-73
2023/08/31 08:05:10;;;;;;;0.60;0.10;;;15.30;99.90;;;;;;4878781;29;20481;-74
2023/08/31 08:07:38;;;;;;;1.93;0.50;;;15.40;99.90;;;;;;4878255;29;21006;-74
2023/08/31 08:10:07;;;;;;;1.27;1.13;;;;;;;;;;4875991;29;20447;-74
2023/08/31 08:12:40;;;;;;;14.93;2.27;;;15.70;99.90;;;;;;4879791;29;20527;-74
2023/08/31 08:15:11;;;;;;;4.23;2.00;;;15.80;99.90;;;;;;4873648;29;20522;-72
2023/08/31 08:17:39;;;;;;;0.60;0.10;;;15.80;99.90;;;;;;4878010;29;20485;-73
2023/08/31 08:20:09;;;;;;;0.93;0.40;;;15.90;99.90;;;;;;4876859;29;20470;-74
2023/08/31 08:22:37;;;;;;;0.60;0.27;;;16.00;99.90;;;;;;4880173;29;20463;-72
2023/08/31 08:25:06;;;;;;;0.60;0.10;;;16.20;99.90;;;;;;4876751;29;20492;-73
2023/08/31 08:27:36;;;;;;;0.60;0.20;;;16.20;99.90;;;;;;4876683;29;20516;-75
2023/08/31 08:30:07;;;;;;;0.60;0.20;;;16.40;99.90;;;;;;4879535;29;20493;-74
2023/08/31 08:32:36;;;;;;;1.60;0.30;;;;;;;;;;4878700;29;20466;-73
2023/08/31 08:35:04;;;;;;;3.90;1.20;;;16.50;99.90;;;;;;4879029;29;20537;-73
2023/08/31 08:37:33;;;;;;;1.27;0.70;;;16.50;99.90;;;;;;4879611;29;20486;-73
2023/08/31 08:40:01;;;;;;;0.60;0.13;;;16.50;99.90;;;;;;4879602;29;20557;-75
2023/08/31 08:42:31;;;;;;;2.03;0.60;;;16.50;99.90;;;;;;4873004;29;20462;-74
2023/08/31 08:44:59;;;;;;;0.67;0.33;;;16.50;99.90;;;;;;4877388;29;20474;-74
2023/08/31 08:47:30;;;;;;;0.97;0.70;;;16.40;99.90;;;;;;4881064;29;20542;-74
2023/08/31 08:50:00;;;;;;;2.50;2.23;;;16.40;99.90;;;;;;4862558;29;20446;-75
2023/08/31 08:52:29;;;;;;;3.27;1.03;;;16.10;99.90;;;;;;4875796;29;20552;-74
2023/08/31 08:54:58;;;;;;;1.10;0.40;;;16.10;99.90;;;;;;4883887;29;20474;-74
2023/08/31 08:57:26;;;;;;;0.60;0.20;;;16.30;99.90;;;;;;4886555;29;20932;-73
2023/08/31 08:59:54;;;;;;;0.60;0.20;;;16.40;99.90;;;;;;4883955;29;20446;-72
2023/08/31 09:02:22;;;;;;;0.60;0.43;;;18.30;99.90;;;;;;4885257;29;20553;-73
2023/08/31 09:04:54;;;;;;;0.77;0.60;;;16.40;99.90;;;;;;4885389;29;21055;-73
2023/08/31 09:07:22;;;;;;;0.60;0.20;;;15.70;99.90;;;;;;4885149;29;20497;-72
2023/08/31 09:09:51;;;;;;;0.60;0.20;;;16.40;99.90;;;;;;4885633;29;20461;-73
2023/08/31 09:12:21;;;;;;;0.60;0.10;;;16.40;99.90;;;;;;4884859;29;20459;-75
2023/08/31 09:14:59;;;;;;;0.70;0.20;;;16.70;99.90;;;;;;4883761;29;20501;-74
2023/08/31 09:17:38;;;;;;;1.03;0.93;;;16.70;99.90;;;;;;4881949;29;20453;-73
2023/08/31 09:20:10;;;;;;;1.00;0.60;;;16.60;99.90;;;;;;4873961;29;20954;-72
2023/08/31 09:22:43;;;;;;;0.60;0.10;;;16.60;99.90;;;;;;4878850;29;20469;-74
2023/08/31 09:25:11;;;;;;;0.60;0.20;;;16.60;99.90;;;;;;4880599;29;20540;-74
2023/08/31 09:27:40;;;;;;;3.13;0.50;;;16.70;99.90;;;;;;4879020;29;20573;-74
2023/08/31 09:30:08;;;;;;;1.57;0.63;;;16.70;99.90;;;;;;4881198;29;20454;-72
2023/08/31 09:32:36;;;;;;;1.73;0.90;;;16.60;99.90;;;;;;4880535;29;20544;-75
2023/08/31 09:35:09;;;;;;;1.00;0.40;;;16.50;99.90;;;;;;4881097;29;20561;-74
2023/08/31 09:37:57;;;;;;;1.00;0.83;;;16.60;99.90;;;;;;4881207;29;20581;-72
2023/08/31 09:40:25;;;;;;;0.60;0.10;;;16.60;99.90;;;;;;4876144;29;20505;-73
2023/08/31 09:42:52;;;;;;;1.30;1.20;;;16.60;99.90;;;;;;4886162;29;20835;-74
2023/08/31 09:45:35;;;;;;;0.77;0.57;;;16.70;99.90;;;;;;4880770;29;20501;-73
2023/08/31 09:48:15;;;;;;;0.60;0.10;;;16.90;99.90;;;;;;4878890;29;20488;-74
2023/08/31 09:50:46;;;;;;;0.60;0.10;;;16.90;99.90;;;;;;4880918;29;20454;-74
2023/08/31 09:53:17;;;;;;;0.70;0.20;;;16.90;99.90;;;;;;4886289;29;20457;-75
2023/08/31 09:55:49;;;;;;;2.07;0.67;;;17.10;99.90;;;;;;4886090;29;20863;-75
2023/08/31 09:58:19;;;;;;;0.60;0.30;;;16.90;99.90;;;;;;4880772;29;20515;-74
2023/08/31 10:00:50;;;;;;;0.60;0.20;;;16.90;99.90;;;;;;4880802;29;20458;-74
2023/08/31 10:03:18;;;;;;;0.60;0.20;;;17.00;99.90;;;;;;4863577;29;20455;-74
2023/08/31 10:05:50;;;;;;;0.60;0.30;;;17.00;99.90;;;;;;4868233;29;20479;-74
2023/08/31 10:08:18;;;;;;;1.60;1.50;;;17.10;99.90;;;;;;4878505;29;20574;-75
2023/08/31 10:10:47;;;;;;;0.60;0.30;;;17.10;99.90;;;;;;4881328;29;20533;-74
2023/08/31 10:13:16;;;;;;;0.60;0.30;;;17.10;99.90;;;;;;4881364;29;20461;-77
2023/08/31 10:15:44;;;;;;;2.63;2.43;;;17.20;99.90;;;;;;4880780;29;20486;-75
2023/08/31 10:18:12;;;;;;;0.80;0.40;;;17.30;99.90;;;;;;4872524;29;20451;-77
2023/08/31 10:20:43;;;;;;;0.60;0.20;;;17.40;99.90;;;;;;4878909;29;20466;-77
2023/08/31 10:23:14;;;;;;;0.60;0.20;;;17.40;99.90;;;;;;4883360;29;20454;-76
2023/08/31 10:26:03;;;;;;;0.60;0.20;;;17.50;99.90;;;;;;4884194;29;20483;-74
2023/08/31 10:28:41;;;;;;;1.10;0.77;;;17.70;99.90;;;;;;4883616;29;20490;-75
2023/08/31 10:31:11;;;;;;;2.33;0.93;;;17.70;99.90;;;;;;4876936;29;20474;-73
2023/08/31 10:33:42;;;;;;;1.43;0.80;;;17.70;99.90;;;;;;4885065;29;20453;-74
2023/08/31 10:36:12;;;;;;;0.60;0.20;;;17.70;99.90;;;;;;4877611;29;20557;-75
2023/08/31 10:38:45;;;;;;;0.60;0.10;;;17.70;99.90;;;;;;4882952;29;20453;-76
2023/08/31 10:41:21;;;;;;;1.07;1.00;;;17.70;99.90;;;;;;4882162;29;20489;-76
2023/08/31 10:43:51;;;;;;;0.60;0.10;;;17.90;99.90;;;;;;4872452;29;20446;-74
2023/08/31 10:46:27;;;;;;;1.17;0.30;;;18.10;99.90;;;;;;4880223;29;20812;-75
2023/08/31 10:48:56;;;;;;;0.70;0.40;;;18.20;99.90;;;;;;4881572;29;20864;-75
2023/08/31 10:51:30;;;;;;;0.60;0.10;;;18.10;99.90;;;;;;4886601;29;20469;-76
2023/08/31 10:54:12;;;;;;;0.60;0.20;;;18.10;99.90;;;;;;4883683;29;20482;-75
2023/08/31 10:57:05;;;;;;;0.60;0.20;;;18.10;99.90;;;;;;4878117;29;20501;-74
2023/08/31 10:59:45;;;;;;;24.03;1.60;;;18.10;99.90;;;;;;4878686;29;20798;-74
2023/08/31 11:02:34;;;;;;;1.37;0.60;;;18.10;99.90;;;;;;4879289;29;20466;-76
2023/08/31 11:05:14;;;;;;;0.60;0.20;;;18.40;99.90;;;;;;4880953;29;20983;-75
2023/08/31 11:07:43;;;;;;;0.60;0.20;;;18.40;99.90;;;;;;4876352;29;20470;-75
2023/08/31 11:10:16;;;;;;;0.70;0.20;;;18.50;99.90;;;;;;4877238;29;20495;-74
2023/08/31 11:12:45;;;;;;;0.70;0.30;;;18.80;99.90;;;;;;4880817;29;20455;-75
2023/08/31 11:15:14;;;;;;;0.60;0.10;;;18.90;99.90;;;;;;4881078;29;21069;-75
2023/08/31 11:17:42;;;;;;;1.67;1.13;;;19.00;99.90;;;;;;4880867;29;20829;-74
2023/08/31 11:20:16;;;;;;;2.87;2.67;;;19.00;99.90;;;;;;4882049;29;20473;-74
2023/08/31 11:22:46;;;;;;;1.13;0.80;;;19.00;96.80;;;;;;4882559;29;20463;-75
2023/08/31 11:25:17;;;;;;;0.60;0.10;;;18.90;92.40;;;;;;4882067;29;20480;-75
2023/08/31 11:27:54;;;;;;;0.77;0.30;;;18.60;91.70;;;;;;4881220;29;21175;-74
2023/08/31 11:30:22;;;;;;;0.60;0.20;;;18.60;93.60;;;;;;4882306;29;20554;-75
2023/08/31 11:32:52;;;;;;;0.60;0.40;;;18.60;94.70;;;;;;4875753;29;21106;-75
2023/08/31 11:35:21;;;;;;;0.60;0.20;;;18.60;93.20;;;;;;4878301;29;20480;-75
2023/08/31 11:37:52;;;;;;;0.60;0.10;;;18.60;94.20;;;;;;4872385;29;20495;-74
2023/08/31 11:40:21;;;;;;;0.60;0.10;;;18.60;92.90;;;;;;4877269;29;20450;-75
2023/08/31 11:42:50;;;;;;;0.60;0.20;;;18.60;98.10;;;;;;4882736;29;20539;-74
2023/08/31 11:45:19;;;;;;;0.83;0.53;;;18.60;90.60;;;;;;4881200;29;20544;-74
2023/08/31 11:47:49;;;;;;;0.80;0.37;;;18.50;95.90;;;;;;4880274;29;20473;-74
2023/08/31 11:50:18;;;;;;;0.60;0.10;;;18.70;97.10;;;;;;4879039;29;20586;-74
2023/08/31 11:52:46;;;;;;;0.60;0.20;;;19.00;94.00;;;;;;4876642;29;20479;-75
2023/08/31 11:55:17;;;;;;;1.37;0.50;;;19.20;90.70;;;;;;4876496;29;20550;-75
2023/08/31 11:57:50;;;;;;;0.70;0.30;;;18.90;88.90;;;;;;4882569;29;20542;-75
2023/08/31 12:00:20;;;;;;;1.30;1.20;;;18.90;95.10;;;;;;4881462;29;20513;-75
2023/08/31 12:02:56;;;;;;;0.70;0.20;;;23.50;92.40;;;;;;4879410;29;20501;-74
2023/08/31 12:05:24;;;;;;;0.97;0.50;;;19.10;79.60;;;;;;4877679;29;21069;-75
2023/08/31 12:07:54;;;;;;;0.60;0.30;;;19.20;82.60;;;;;;4876469;29;20965;-74
2023/08/31 12:10:25;;;;;;;0.60;0.10;;;19.20;92.00;;;;;;4876814;29;20489;-74
2023/08/31 12:12:56;;;;;;;0.60;0.20;;;;;;;;;;4879164;29;20976;-75
2023/08/31 12:15:34;;;;;;;0.60;0.10;;;19.40;78.30;;;;;;4876693;29;20479;-75
2023/08/31 12:18:08;;;;;;;0.60;0.10;;;19.50;75.20;;;;;;4870011;29;20469;-75
2023/08/31 12:20:44;;;;;;;0.70;0.40;;;19.70;77.20;;;;;;4878831;29;20443;-75
2023/08/31 12:23:14;;;;;;;0.60;0.20;;;19.70;88.10;;;;;;4879449;29;20465;-74
2023/08/31 12:25:47;;;;;;;0.60;0.10;;;19.90;73.80;;;;;;4880635;29;20484;-74
2023/08/31 12:28:18;;;;;;;0.60;0.10;;;19.90;83.90;;;;;;4882362;29;20488;-75
2023/08/31 12:30:49;;;;;;;0.60;0.10;;;19.90;83.30;;;;;;4868536;29;20517;-77
2023/08/31 12:33:17;;;;;;;0.83;0.37;;;19.90;55.40;;;;;;4876727;29;20558;-76
2023/08/31 12:35:46;;;;;;;0.60;0.10;;;19.70;52.20;;;;;;4879145;29;20485;-76
2023/08/31 12:38:14;;;;;;;0.60;0.20;;;19.70;64.10;;;;;;4879223;29;20458;-77
2023/08/31 12:40:42;;;;;;;0.60;0.10;;;19.70;62.10;;;;;;4876062;29;20473;-74
2023/08/31 12:43:10;;;;;;;0.60;0.10;;;19.70;53.80;;;;;;4871933;29;20471;-76
2023/08/31 12:45:39;;;;;;;0.60;0.20;;;20.10;51.10;;;;;;4871990;29;20483;-74
2023/08/31 12:48:08;;;;;;;0.60;0.17;;;20.10;62.30;;;;;;4877023;29;20457;-75
2023/08/31 12:50:36;;;;;;;0.60;0.20;;;20.40;62.30;;;;;;4877170;29;20489;-76
2023/08/31 12:53:04;;;;;;;0.60;0.10;;;20.50;50.60;;;;;;4887370;29;21008;-74
2023/08/31 12:55:32;;;;;;;0.90;0.53;;;20.70;48.70;;;;;;4877787;29;20481;-75
2023/08/31 12:58:00;;;;;;;1.07;0.30;;;20.60;50.90;;;;;;4872702;29;20500;-74
2023/08/31 13:00:28;;;;;;;0.70;0.50;;;20.40;43.40;;;;;;4877181;29;20464;-74
2023/08/31 13:02:57;;;;;;;0.73;0.73;;;20.10;31.10;;;;;;4880529;29;20489;-74
2023/08/31 13:05:27;;;;;;;0.60;0.20;;;;;;;;;;4875606;29;20498;-75
2023/08/31 13:07:55;;;;;;;0.60;0.10;;;20.00;28.20;;;;;;4884444;29;20568;-75
2023/08/31 13:10:23;;;;;;;0.60;0.10;;;20.10;39.60;;;;;;4882743;29;20504;-76
2023/08/31 13:12:52;;;;;;;0.60;0.10;;;;;;;;;;4883876;29;20500;-76
2023/08/31 13:15:20;;;;;;;0.60;0.10;;;20.20;40.90;;;;;;4874692;29;20870;-76
2023/08/31 13:17:47;;;;;;;0.60;0.10;;;20.20;40.40;;;;;;4878510;29;20490;-76
2023/08/31 13:20:17;;;;;;;0.60;0.20;;;20.30;40.60;;;;;;4879502;29;20538;-76
2023/08/31 13:22:45;;;;;;;0.67;0.27;;;20.30;40.90;;;;;;4883959;29;20497;-76
2023/08/31 13:25:13;;;;;;;0.60;0.10;;;20.40;39.00;;;;;;4876513;29;20485;-75
2023/08/31 13:27:41;;;;;;;0.60;0.10;;;20.40;46.50;;;;;;4877956;29;20511;-76
2023/08/31 13:30:12;;;;;;;0.70;0.20;;;20.30;43.70;;;;;;4877296;29;20563;-75
2023/08/31 13:32:39;;;;;;;0.67;0.33;;;20.30;29.50;;;;;;4867623;29;20469;-76
2023/08/31 13:35:08;;;;;;;0.60;0.10;;;20.30;25.80;;;;;;4876282;29;20479;-77
2023/08/31 13:37:38;;;;;;;0.90;0.47;;;20.30;37.30;;;;;;4867527;29;20498;-75
2023/08/31 13:40:09;;;;;;;1.47;0.90;;;20.40;36.10;;;;;;4879531;29;20964;-75
2023/08/31 13:42:38;;;;;;;0.60;0.23;;;20.20;1.00;;;;;;4876955;29;20894;-74
2023/08/31 13:45:08;;;;;;;1.37;0.57;;;20.30;1.00;;;;;;4867375;29;20497;-77
2023/08/31 13:47:36;;;;;;;0.80;0.50;;;20.30;8.20;;;;;;4880249;29;20545;-74
2023/08/31 13:50:05;;;;;;;0.60;0.20;;;20.20;5.70;;;;;;4879496;29;20564;-74
2023/08/31 13:52:33;;;;;;;0.60;0.20;;;20.20;7.60;;;;;;4881564;29;20533;-76
2023/08/31 13:55:03;;;;;;;1.00;0.63;;;20.70;1.00;;;;;;4871750;29;20970;-76
2023/08/31 13:57:31;;;;;;;0.70;0.60;;;20.60;3.20;;;;;;4880728;29;20488;-76
2023/08/31 13:59:59;;;;;;;0.70;0.20;;;20.70;1.00;;;;;;4881824;29;20528;-74
2023/08/31 14:02:27;;;;;;;0.70;0.40;;;20.70;1.00;;;;;;4880948;29;20488;-75
2023/08/31 14:04:56;;;;;;;0.90;0.40;;;20.60;1.00;;;;;;4879945;29;20480;-74
2023/08/31 14:07:23;;;;;;;0.70;0.20;;;20.70;1.00;;;;;;4873059;29;20465;-75
2023/08/31 14:09:51;;;;;;;0.80;0.40;;;20.70;1.00;;;;;;4881087;29;20529;-76
2023/08/31 14:12:21;;;;;;;1.00;0.40;;;20.70;1.00;;;;;;4880979;29;20456;-75
2023/08/31 14:14:49;;;;;;;0.60;0.20;;;20.70;1.00;;;;;;4880419;29;20480;-75
2023/08/31 14:17:17;;;;;;;0.70;0.30;;;20.70;1.00;;;;;;4878884;29;20493;-75
2023/08/31 14:19:44;;;;;;;0.87;0.53;;;20.70;1.00;;;;;;4874947;29;20557;-77
2023/08/31 14:22:12;;;;;;;2.40;1.13;;;20.80;1.00;;;;;;4880448;29;20850;-73
2023/08/31 14:24:40;;;;;;;0.60;0.10;;;20.90;1.00;;;;;;4880591;29;20487;-75
2023/08/31 14:27:08;;;;;;;0.80;0.30;;;20.90;1.00;;;;;;4879359;29;20450;-73
2023/08/31 14:29:38;;;;;;;1.00;0.70;;;21.00;1.00;;;;;;4878471;29;20604;-73
2023/08/31 14:32:06;;;;;;;0.70;0.37;;;20.90;1.00;;;;;;4877195;29;20492;-76
2023/08/31 14:34:34;;;;;;;0.80;0.30;;;21.00;1.00;;;;;;4880656;29;20484;-74
2023/08/31 14:37:03;;;;;;;1.07;0.30;;;20.90;1.00;;;;;;4879659;29;20893;-74
2023/08/31 14:39:31;;;;;;;1.07;0.40;;;20.90;1.00;;;;;;4877987;29;20555;-77
2023/08/31 14:41:59;;;;;;;0.60;0.17;;;21.00;1.00;;;;;;4880403;29;20603;-77
2023/08/31 14:44:27;;;;;;;0.80;0.30;;;20.90;1.00;;;;;;4879530;29;20668;-77
2023/08/31 14:46:56;;;;;;;1.40;0.73;;;20.90;1.00;;;;;;4880555;29;20453;-75
2023/08/31 14:49:25;;;;;;;1.50;0.77;;;20.80;1.00;;;;;;4877052;29;20479;-76
2023/08/31 14:51:53;;;;;;;1.80;0.40;;;20.60;1.00;;;;;;4881226;29;20580;-75
2023/08/31 14:54:23;;;;;;;1.30;0.87;;;20.60;1.00;;;;;;4879733;29;20521;-75
2023/08/31 14:56:51;;;;;;;0.87;0.80;;;20.60;1.00;;;;;;4877632;29;20549;-73
2023/08/31 14:59:19;;;;;;;2.63;1.17;;;20.70;1.00;;;;;;4881869;29;20867;-73
2023/08/31 15:01:47;;;;;;;0.60;0.20;;;20.80;1.00;;;;;;4879028;29;20468;-75
2023/08/31 15:04:16;;;;;;;0.60;0.20;;;20.80;1.00;;;;;;4880632;29;20471;-73
2023/08/31 15:06:44;;;;;;;0.70;0.33;;;20.90;1.00;;;;;;4878049;29;20465;-73
2023/08/31 15:09:13;;;;;;;1.43;0.87;;;20.70;1.00;;;;;;4884892;29;20877;-76
2023/08/31 15:11:40;;;;;;;0.90;0.20;;;20.70;1.00;;;;;;4879349;29;20482;-75
2023/08/31 15:14:09;;;;;;;1.53;0.70;;;;;;;;;;4879168;29;20450;-76
2023/08/31 15:16:37;;;;;;;2.83;1.27;;;18.90;1.00;;;;;;4879882;29;20458;-76
2023/08/31 15:19:05;;;;;;;0.60;0.27;;;20.90;1.00;;;;;;4879558;29;20454;-75
2023/08/31 15:21:35;;;;;;;0.60;0.23;;;20.90;1.00;;;;;;4879350;29;20482;-74
2023/08/31 15:24:08;;;;;;;1.00;0.30;;;20.80;1.00;;;;;;4879885;29;20967;-73
2023/08/31 15:26:37;;;;;;;3.33;0.50;;;;;;;;;;4879542;29;20456;-75
2023/08/31 15:29:05;;;;;;;0.70;0.20;;;20.90;1.00;;;;;;4871802;29;20526;-72
2023/08/31 15:31:33;;;;;;;2.37;2.17;;;20.60;1.00;;;;;;4873225;29;20478;-75
2023/08/31 15:34:03;;;;;;;0.60;0.20;;;;;;;;;;4880480;29;20473;-75
2023/08/31 15:36:34;;;;;;;2.50;1.03;;;20.50;1.00;;;;;;4883373;29;20477;-74
2023/08/31 15:39:04;;;;;;;0.60;0.10;;;;;;;;;;4884006;29;20469;-73
2023/08/31 15:41:36;;;;;;;7.93;1.03;;;20.60;1.00;;;;;;4887890;29;20454;-75
2023/08/31 15:44:04;;;;;;;0.80;0.30;;;20.60;1.00;;;;;;4886583;29;20495;-75
2023/08/31 15:46:33;;;;;;;3.80;1.80;;;20.60;1.00;;;;;;4881528;29;20517;-74
2023/08/31 15:49:01;;;;;;;3.57;1.50;;;20.60;1.00;;;;;;4879773;29;20604;-75
2023/08/31 15:51:32;;;;;;;0.60;0.20;;;20.90;1.00;;;;;;4878502;29;20587;-75
2023/08/31 15:54:04;;;;;;;1.03;0.40;;;21.20;1.00;;;;;;4878324;29;20462;-76
2023/08/31 15:56:34;;;;;;;0.60;0.10;;;;;;;;;;4878429;29;20468;-75
2023/08/31 15:59:03;;;;;;;0.80;0.43;;;21.30;1.00;;;;;;4877945;29;20462;-75
2023/08/31 16:01:31;;;;;;;1.37;0.60;;;21.40;1.00;;;;;;4878337;29;20545;-74
2023/08/31 16:04:00;;;;;;;1.00;0.40;;;;;;;;;;4879155;29;20557;-73
2023/08/31 16:06:30;;;;;;;0.70;0.30;;;21.40;1.00;;;;;;4880248;29;20601;-73
2023/08/31 16:08:58;;;;;;;2.67;0.80;;;21.60;1.00;;;;;;4880404;29;20480;-75
2023/08/31 16:11:26;;;;;;;2.93;0.57;;;21.40;1.00;;;;;;4878254;29;20835;-73
2023/08/31 16:13:58;;;;;;;0.70;0.33;;;21.20;1.00;;;;;;4878954;29;20457;-75
2023/08/31 16:16:26;;;;;;;0.60;0.20;;;21.20;1.00;;;;;;4874230;29;21324;-74
2023/08/31 16:18:54;;;;;;;0.60;0.10;;;21.20;1.00;;;;;;4877419;29;20461;-75
2023/08/31 16:21:22;;;;;;;1.47;0.43;;;;;;;;;;4882957;29;20453;-74
2023/08/31 16:23:56;;;;;;;2.23;1.03;;;20.60;1.00;;;;;;4879928;29;20773;-75
2023/08/31 16:26:24;;;;;;;4.43;4.07;;;20.60;1.00;;;;;;4875613;29;20493;-75
2023/08/31 16:28:54;;;;;;;1.30;0.97;;;20.50;1.00;;;;;;4883202;29;20456;-76
2023/08/31 16:31:24;;;;;;;0.90;0.40;;;20.40;1.00;;;;;;4879387;29;20489;-74
2023/08/31 16:33:57;;;;;;;0.60;0.10;;;20.40;1.00;;;;;;4879910;29;20473;-74
2023/08/31 16:36:28;;;;;;;0.60;0.37;;;20.40;1.00;;;;;;4876145;29;20525;-75
2023/08/31 16:38:58;;;;;;;0.70;0.27;;;20.30;1.00;;;;;;4882777;29;20505;-75
2023/08/31 16:41:26;;;;;;;0.60;0.10;;;20.40;1.00;;;;;;4882098;29;20514;-75
2023/08/31 16:43:56;;;;;;;0.60;0.20;;;20.30;1.00;;;;;;4880697;29;20452;-74
2023/08/31 16:46:30;;;;;;;0.70;0.40;;;20.40;1.00;;;;;;4878444;29;20561;-74
2023/08/31 16:49:02;;;;;;;0.60;0.10;;;20.20;1.00;;;;;;4880696;29;20548;-76
2023/08/31 16:51:30;;;;;;;0.60;0.10;;;20.20;1.00;;;;;;4879963;29;20449;-75
2023/08/31 16:54:05;;;;;;;0.90;0.60;;;;;;;;;;4877481;29;20496;-75
2023/08/31 16:56:33;;;;;;;0.60;0.20;;;20.00;1.00;;;;;;4880025;29;20455;-75
2023/08/31 16:59:02;;;;;;;1.40;1.20;;;20.00;1.00;;;;;;4880913;29;20527;-74
2023/08/31 17:01:32;;;;;;;0.80;0.57;;;19.90;1.00;;;;;;4880425;29;20512;-74
2023/08/31 17:04:01;;;;;;;0.60;0.20;;;;;;;;;;4878715;29;20457;-74
2023/08/31 17:06:34;;;;;;;1.43;0.60;;;19.80;1.00;;;;;;4877534;29;20491;-73
2023/08/31 17:09:04;;;;;;;1.73;0.37;;;19.80;1.00;;;;;;4877161;29;20946;-73
2023/08/31 17:11:37;;;;;;;1.30;0.77;;;19.80;1.00;;;;;;4876896;29;20450;-72
2023/08/31 17:14:07;;;;;;;0.80;0.60;;;19.70;1.00;;;;;;4876203;29;20559;-73